sensor_id;sensor_type;location;lat;lon;timestamp;temperature;humidity
24085;DHT22;12268;52.110;5.548;2023-11-21T00:01:05;11.90;99.90
24085;DHT22;12268;52.110;5.548;2023-11-21T00:03:34;11.90;99.90
24085;DHT22;12268;52.110;5.548;2023-11-21T00:06:00;11.90;99.90
24085;DHT22;12268;52.110;5.548;2023-11-21T00:16:12;11.80;99.90
24085;DHT22;12268;52.110;5.548;2023-11-21T00:18:37;11.90;99.90
24085;DHT22;12268;52.110;5.548;2023-11-21T00:21:03;11.90;99.90
24085;DHT22;12268;52.110;5.548;2023-11-21T00:23:29;11.90;99.90
24085;DHT22;12268;52.110;5.548;2023-11-21T00:25:54;11.90;99.90
24085;DHT22;12268;52.110;5.548;2023-11-21T00:28:20;11.80;99.90
24085;DHT22;12268;52.110;5.548;2023-11-21T00:30:45;11.80;99.90
24085;DHT22;12268;52.110;5.548;2023-11-21T00:33:11;11.80;99.90
24085;DHT22;12268;52.110;5.548;2023-11-21T00:35:36;11.90;99.90
24085;DHT22;12268;52.110;5.548;2023-11-21T00:40:37;11.70;99.90
24085;DHT22;12268;52.110;5.548;2023-11-21T00:43:03;11.70;99.90
24085;DHT22;12268;52.110;5.548;2023-11-21T00:45:29;11.70;99.90
24085;DHT22;12268;52.110;5.548;2023-11-21T00:47:54;11.80;99.90
24085;DHT22;12268;52.110;5.548;2023-11-21T00:50:21;11.80;99.90
24085;DHT22;12268;52.110;5.548;2023-11-21T00:52:47;11.80;99.90
24085;DHT22;12268;52.110;5.548;2023-11-21T00:55:12;11.80;99.90
24085;DHT22;12268;52.110;5.548;2023-11-21T00:57:38;11.70;99.90
24085;DHT22;12268;52.110;5.548;2023-11-21T01:00:04;11.80;99.90
24085;DHT22;12268;52.110;5.548;2023-11-21T01:02:38;11.80;99.90
24085;DHT22;12268;52.110;5.548;2023-11-21T01:05:04;11.90;99.90
24085;DHT22;12268;52.110;5.548;2023-11-21T01:07:33;11.90;99.90
24085;DHT22;12268;52.110;5.548;2023-11-21T01:09:58;12.10;99.90
24085;DHT22;12268;52.110;5.548;2023-11-21T01:12:24;11.90;99.90
24085;DHT22;12268;52.110;5.548;2023-11-21T01:14:50;11.90;99.90
24085;DHT22;12268;52.110;5.548;2023-11-21T01:17:16;11.90;99.90
24085;DHT22;12268;52.110;5.548;2023-11-21T01:19:42;12.00;99.90
24085;DHT22;12268;52.110;5.548;2023-11-21T01:22:07;12.10;99.90
24085;DHT22;12268;52.110;5.548;2023-11-21T01:24:33;12.10;99.90
24085;DHT22;12268;52.110;5.548;2023-11-21T01:26:59;12.10;99.90
24085;DHT22;12268;52.110;5.548;2023-11-21T01:29:25;12.20;99.90
24085;DHT22;12268;52.110;5.548;2023-11-21T01:31:50;12.20;99.90
24085;DHT22;12268;52.110;5.548;2023-11-21T01:34:17;12.30;99.90
24085;DHT22;12268;52.110;5.548;2023-11-21T01:36:42;12.20;99.90
24085;DHT22;12268;52.110;5.548;2023-11-21T01:39:08;12.20;99.90
24085;DHT22;12268;52.110;5.548;2023-11-21T01:41:36;12.20;99.90
24085;DHT22;12268;52.110;5.548;2023-11-21T01:44:02;12.30;99.90
24085;DHT22;12268;52.110;5.548;2023-11-21T01:46:28;12.30;99.90
24085;DHT22;12268;52.110;5.548;2023-11-21T01:48:54;12.30;99.90
24085;DHT22;12268;52.110;5.548;2023-11-21T01:51:20;12.40;99.90
24085;DHT22;12268;52.110;5.548;2023-11-21T01:53:46;12.40;99.90
24085;DHT22;12268;52.110;5.548;2023-11-21T01:56:12;12.40;99.90
24085;DHT22;12268;52.110;5.548;2023-11-21T01:58:39;12.50;99.90
24085;DHT22;12268;52.110;5.548;2023-11-21T02:01:05;12.60;99.90
24085;DHT22;12268;52.110;5.548;2023-11-21T02:03:30;12.60;99.90
24085;DHT22;12268;52.110;5.548;2023-11-21T02:05:56;12.60;99.90
24085;DHT22;12268;52.110;5.548;2023-11-21T02:08:22;12.60;99.90
24085;DHT22;12268;52.110;5.548;2023-11-21T02:10:47;12.60;99.90
24085;DHT22;12268;52.110;5.548;2023-11-21T02:13:13;12.60;99.90
24085;DHT22;12268;52.110;5.548;2023-11-21T02:15:39;12.60;99.90
24085;DHT22;12268;52.110;5.548;2023-11-21T02:18:05;12.70;99.90
24085;DHT22;12268;52.110;5.548;2023-11-21T02:20:31;12.60;99.90
24085;DHT22;12268;52.110;5.548;2023-11-21T02:23:00;12.60;99.90
24085;DHT22;12268;52.110;5.548;2023-11-21T02:25:29;12.60;99.90
24085;DHT22;12268;52.110;5.548;2023-11-21T02:27:56;12.60;99.90
24085;DHT22;12268;52.110;5.548;2023-11-21T02:30:22;12.60;99.90
24085;DHT22;12268;52.110;5.548;2023-11-21T02:32:50;12.60;99.90
24085;DHT22;12268;52.110;5.548;2023-11-21T02:35:18;12.60;99.90
24085;DHT22;12268;52.110;5.548;2023-11-21T02:37:46;12.70;99.90
24085;DHT22;12268;52.110;5.548;2023-11-21T02:40:12;12.80;99.90
24085;DHT22;12268;52.110;5.548;2023-11-21T02:42:39;12.90;99.90
24085;DHT22;12268;52.110;5.548;2023-11-21T02:45:06;12.80;99.90
24085;DHT22;12268;52.110;5.548;2023-11-21T02:47:32;12.90;99.90
24085;DHT22;12268;52.110;5.548;2023-11-21T02:49:57;13.00;99.90
24085;DHT22;12268;52.110;5.548;2023-11-21T02:52:23;12.90;99.90
24085;DHT22;12268;52.110;5.548;2023-11-21T02:54:49;12.90;99.90
24085;DHT22;12268;52.110;5.548;2023-11-21T02:57:14;12.80;99.90
24085;DHT22;12268;52.110;5.548;2023-11-21T02:59:40;12.80;99.90
24085;DHT22;12268;52.110;5.548;2023-11-21T03:02:05;12.90;99.90
24085;DHT22;12268;52.110;5.548;2023-11-21T03:04:34;13.00;99.90
24085;DHT22;12268;52.110;5.548;2023-11-21T03:07:00;13.00;99.90
24085;DHT22;12268;52.110;5.548;2023-11-21T03:09:26;12.90;99.90
24085;DHT22;12268;52.110;5.548;2023-11-21T03:11:52;13.00;99.90
24085;DHT22;12268;52.110;5.548;2023-11-21T03:14:18;12.90;99.90
24085;DHT22;12268;52.110;5.548;2023-11-21T03:16:43;12.80;99.90
24085;DHT22;12268;52.110;5.548;2023-11-21T03:19:10;12.90;99.90
24085;DHT22;12268;52.110;5.548;2023-11-21T03:21:36;13.00;99.90
24085;DHT22;12268;52.110;5.548;2023-11-21T03:24:02;13.20;99.90
24085;DHT22;12268;52.110;5.548;2023-11-21T03:26:28;13.20;99.90
24085;DHT22;12268;52.110;5.548;2023-11-21T03:28:55;12.90;99.90
24085;DHT22;12268;52.110;5.548;2023-11-21T03:31:21;13.10;99.90
24085;DHT22;12268;52.110;5.548;2023-11-21T03:33:46;13.10;99.90
24085;DHT22;12268;52.110;5.548;2023-11-21T03:36:12;13.00;99.90
24085;DHT22;12268;52.110;5.548;2023-11-21T03:38:40;12.90;99.90
24085;DHT22;12268;52.110;5.548;2023-11-21T03:41:06;12.90;99.90
24085;DHT22;12268;52.110;5.548;2023-11-21T03:43:31;12.70;99.90
24085;DHT22;12268;52.110;5.548;2023-11-21T03:45:57;12.80;99.90
24085;DHT22;12268;52.110;5.548;2023-11-21T03:48:23;12.80;99.90
24085;DHT22;12268;52.110;5.548;2023-11-21T03:50:48;12.70;99.90
24085;DHT22;12268;52.110;5.548;2023-11-21T03:53:14;12.80;99.90
24085;DHT22;12268;52.110;5.548;2023-11-21T03:55:39;12.90;99.90
24085;DHT22;12268;52.110;5.548;2023-11-21T03:58:05;13.00;99.90
24085;DHT22;12268;52.110;5.548;2023-11-21T04:00:31;12.90;99.90
24085;DHT22;12268;52.110;5.548;2023-11-21T04:02:56;13.10;99.90
24085;DHT22;12268;52.110;5.548;2023-11-21T04:05:23;13.20;99.90
24085;DHT22;12268;52.110;5.548;2023-11-21T04:07:52;13.20;99.90
24085;DHT22;12268;52.110;5.548;2023-11-21T04:10:17;13.30;99.90
24085;DHT22;12268;52.110;5.548;2023-11-21T04:12:43;13.20;99.90
24085;DHT22;12268;52.110;5.548;2023-11-21T04:15:10;13.40;99.90
24085;DHT22;12268;52.110;5.548;2023-11-21T04:17:36;13.40;99.90
24085;DHT22;12268;52.110;5.548;2023-11-21T04:20:03;13.40;99.90
24085;DHT22;12268;52.110;5.548;2023-11-21T04:22:33;13.40;99.90
24085;DHT22;12268;52.110;5.548;2023-11-21T04:24:59;13.40;99.90
24085;DHT22;12268;52.110;5.548;2023-11-21T04:27:24;13.50;99.90
24085;DHT22;12268;52.110;5.548;2023-11-21T04:29:50;13.50;99.90
24085;DHT22;12268;52.110;5.548;2023-11-21T04:32:16;13.50;99.90
24085;DHT22;12268;52.110;5.548;2023-11-21T04:34:41;13.50;99.90
24085;DHT22;12268;52.110;5.548;2023-11-21T04:37:07;13.50;99.90
24085;DHT22;12268;52.110;5.548;2023-11-21T04:39:32;13.50;99.90
24085;DHT22;12268;52.110;5.548;2023-11-21T04:41:58;13.60;99.90
24085;DHT22;12268;52.110;5.548;2023-11-21T04:44:23;13.80;99.90
24085;DHT22;12268;52.110;5.548;2023-11-21T04:46:49;13.70;99.90
24085;DHT22;12268;52.110;5.548;2023-11-21T04:49:14;13.80;99.90
24085;DHT22;12268;52.110;5.548;2023-11-21T04:51:40;13.80;99.90
24085;DHT22;12268;52.110;5.548;2023-11-21T04:54:06;13.70;99.90
24085;DHT22;12268;52.110;5.548;2023-11-21T04:56:31;13.60;99.90
24085;DHT22;12268;52.110;5.548;2023-11-21T04:58:57;13.50;99.90
24085;DHT22;12268;52.110;5.548;2023-11-21T05:01:22;13.60;99.90
24085;DHT22;12268;52.110;5.548;2023-11-21T05:03:48;13.60;99.90
24085;DHT22;12268;52.110;5.548;2023-11-21T05:06:14;13.70;99.90
24085;DHT22;12268;52.110;5.548;2023-11-21T05:08:40;13.80;99.90
24085;DHT22;12268;52.110;5.548;2023-11-21T05:11:06;13.70;99.90
24085;DHT22;12268;52.110;5.548;2023-11-21T05:13:36;13.40;99.90
24085;DHT22;12268;52.110;5.548;2023-11-21T05:16:02;13.20;99.90
24085;DHT22;12268;52.110;5.548;2023-11-21T05:18:29;13.40;99.90
24085;DHT22;12268;52.110;5.548;2023-11-21T05:20:55;13.30;99.90
24085;DHT22;12268;52.110;5.548;2023-11-21T05:23:21;13.30;99.90
24085;DHT22;12268;52.110;5.548;2023-11-21T05:25:47;13.40;99.90
24085;DHT22;12268;52.110;5.548;2023-11-21T05:28:13;13.50;99.90
24085;DHT22;12268;52.110;5.548;2023-11-21T05:30:38;13.60;99.90
24085;DHT22;12268;52.110;5.548;2023-11-21T05:33:05;13.80;99.90
24085;DHT22;12268;52.110;5.548;2023-11-21T05:35:30;13.90;99.90
24085;DHT22;12268;52.110;5.548;2023-11-21T05:37:56;13.90;99.90
24085;DHT22;12268;52.110;5.548;2023-11-21T05:40:22;13.90;99.90
24085;DHT22;12268;52.110;5.548;2023-11-21T05:42:48;13.80;99.90
24085;DHT22;12268;52.110;5.548;2023-11-21T05:45:14;13.90;99.90
24085;DHT22;12268;52.110;5.548;2023-11-21T05:47:43;14.00;99.90
24085;DHT22;12268;52.110;5.548;2023-11-21T05:50:12;13.80;99.90
24085;DHT22;12268;52.110;5.548;2023-11-21T05:52:40;13.90;99.90
24085;DHT22;12268;52.110;5.548;2023-11-21T05:55:07;14.00;99.90
24085;DHT22;12268;52.110;5.548;2023-11-21T05:57:33;13.80;99.90
24085;DHT22;12268;52.110;5.548;2023-11-21T06:00:05;13.70;99.90
24085;DHT22;12268;52.110;5.548;2023-11-21T06:02:40;13.70;99.90
24085;DHT22;12268;52.110;5.548;2023-11-21T06:05:09;13.80;99.90
24085;DHT22;12268;52.110;5.548;2023-11-21T06:07:35;13.80;99.90
24085;DHT22;12268;52.110;5.548;2023-11-21T06:10:08;13.90;99.90
24085;DHT22;12268;52.110;5.548;2023-11-21T06:12:36;13.90;99.90
24085;DHT22;12268;52.110;5.548;2023-11-21T06:15:03;13.90;99.90
24085;DHT22;12268;52.110;5.548;2023-11-21T06:17:31;13.70;99.90
24085;DHT22;12268;52.110;5.548;2023-11-21T06:19:57;13.60;99.90
24085;DHT22;12268;52.110;5.548;2023-11-21T06:22:22;13.60;99.90
24085;DHT22;12268;52.110;5.548;2023-11-21T06:24:48;13.80;99.90
24085;DHT22;12268;52.110;5.548;2023-11-21T06:27:13;13.80;99.90
24085;DHT22;12268;52.110;5.548;2023-11-21T06:29:39;13.70;99.90
24085;DHT22;12268;52.110;5.548;2023-11-21T06:32:05;13.70;99.90
24085;DHT22;12268;52.110;5.548;2023-11-21T06:34:31;13.70;99.90
24085;DHT22;12268;52.110;5.548;2023-11-21T06:36:56;13.70;99.90
24085;DHT22;12268;52.110;5.548;2023-11-21T06:39:22;13.70;99.90
24085;DHT22;12268;52.110;5.548;2023-11-21T06:41:49;13.80;99.90
24085;DHT22;12268;52.110;5.548;2023-11-21T06:44:15;13.80;99.90
24085;DHT22;12268;52.110;5.548;2023-11-21T06:46:40;13.90;99.90
24085;DHT22;12268;52.110;5.548;2023-11-21T06:49:08;14.00;99.90
24085;DHT22;12268;52.110;5.548;2023-11-21T06:51:34;14.10;99.90
24085;DHT22;12268;52.110;5.548;2023-11-21T06:53:59;14.10;99.90
24085;DHT22;12268;52.110;5.548;2023-11-21T06:56:25;14.10;99.90
24085;DHT22;12268;52.110;5.548;2023-11-21T06:58:51;14.10;99.90
24085;DHT22;12268;52.110;5.548;2023-11-21T07:01:19;14.10;99.90
24085;DHT22;12268;52.110;5.548;2023-11-21T07:03:45;14.30;99.90
24085;DHT22;12268;52.110;5.548;2023-11-21T07:06:11;14.30;99.90
24085;DHT22;12268;52.110;5.548;2023-11-21T07:08:36;14.40;99.90
24085;DHT22;12268;52.110;5.548;2023-11-21T07:11:03;14.40;99.90
24085;DHT22;12268;52.110;5.548;2023-11-21T07:13:29;14.50;99.90
24085;DHT22;12268;52.110;5.548;2023-11-21T07:15:55;14.50;99.90
24085;DHT22;12268;52.110;5.548;2023-11-21T07:18:20;14.50;99.90
24085;DHT22;12268;52.110;5.548;2023-11-21T07:20:46;14.60;99.90
24085;DHT22;12268;52.110;5.548;2023-11-21T07:23:11;14.70;99.90
24085;DHT22;12268;52.110;5.548;2023-11-21T07:25:37;14.70;99.90
24085;DHT22;12268;52.110;5.548;2023-11-21T07:28:03;14.70;99.90
24085;DHT22;12268;52.110;5.548;2023-11-21T07:30:30;14.80;99.90
24085;DHT22;12268;52.110;5.548;2023-11-21T07:32:56;14.80;99.90
24085;DHT22;12268;52.110;5.548;2023-11-21T07:35:21;14.80;99.90
24085;DHT22;12268;52.110;5.548;2023-11-21T07:37:47;14.80;99.90
24085;DHT22;12268;52.110;5.548;2023-11-21T07:40:14;14.80;99.90
24085;DHT22;12268;52.110;5.548;2023-11-21T07:42:39;14.80;99.90
24085;DHT22;12268;52.110;5.548;2023-11-21T07:45:06;14.80;99.90
24085;DHT22;12268;52.110;5.548;2023-11-21T07:47:32;14.80;99.90
24085;DHT22;12268;52.110;5.548;2023-11-21T07:50:00;14.80;99.90
24085;DHT22;12268;52.110;5.548;2023-11-21T07:52:25;14.80;99.90
24085;DHT22;12268;52.110;5.548;2023-11-21T07:54:51;14.70;99.90
24085;DHT22;12268;52.110;5.548;2023-11-21T07:57:16;14.80;99.90
24085;DHT22;12268;52.110;5.548;2023-11-21T07:59:42;14.80;99.90
24085;DHT22;12268;52.110;5.548;2023-11-21T08:02:08;14.90;99.90
24085;DHT22;12268;52.110;5.548;2023-11-21T08:04:33;15.00;99.90
24085;DHT22;12268;52.110;5.548;2023-11-21T08:07:01;15.10;99.90
24085;DHT22;12268;52.110;5.548;2023-11-21T08:09:27;15.10;99.90
24085;DHT22;12268;52.110;5.548;2023-11-21T08:11:52;15.10;99.90
24085;DHT22;12268;52.110;5.548;2023-11-21T08:14:18;15.10;99.90
24085;DHT22;12268;52.110;5.548;2023-11-21T08:16:44;15.20;99.90
24085;DHT22;12268;52.110;5.548;2023-11-21T08:19:10;15.40;99.90
24085;DHT22;12268;52.110;5.548;2023-11-21T08:21:36;15.40;99.90
24085;DHT22;12268;52.110;5.548;2023-11-21T08:24:03;15.40;99.90
24085;DHT22;12268;52.110;5.548;2023-11-21T08:26:29;15.20;99.90
24085;DHT22;12268;52.110;5.548;2023-11-21T08:28:55;15.30;99.90
24085;DHT22;12268;52.110;5.548;2023-11-21T08:31:28;15.50;99.90
24085;DHT22;12268;52.110;5.548;2023-11-21T08:33:54;15.80;99.90
24085;DHT22;12268;52.110;5.548;2023-11-21T08:36:24;15.70;99.90
24085;DHT22;12268;52.110;5.548;2023-11-21T08:38:50;15.70;99.90
24085;DHT22;12268;52.110;5.548;2023-11-21T08:41:19;15.70;99.90
24085;DHT22;12268;52.110;5.548;2023-11-21T08:43:50;15.80;99.90
24085;DHT22;12268;52.110;5.548;2023-11-21T08:46:16;15.80;99.90
24085;DHT22;12268;52.110;5.548;2023-11-21T08:48:43;15.80;99.90
24085;DHT22;12268;52.110;5.548;2023-11-21T08:51:10;15.90;99.90
24085;DHT22;12268;52.110;5.548;2023-11-21T08:53:37;15.90;99.90
24085;DHT22;12268;52.110;5.548;2023-11-21T08:56:03;15.90;99.90
24085;DHT22;12268;52.110;5.548;2023-11-21T08:58:30;15.90;99.90
24085;DHT22;12268;52.110;5.548;2023-11-21T09:00:56;16.00;99.90
24085;DHT22;12268;52.110;5.548;2023-11-21T09:03:21;16.00;99.90
24085;DHT22;12268;52.110;5.548;2023-11-21T09:05:47;16.00;99.90
24085;DHT22;12268;52.110;5.548;2023-11-21T09:08:12;16.00;99.90
24085;DHT22;12268;52.110;5.548;2023-11-21T09:10:38;16.00;99.90
24085;DHT22;12268;52.110;5.548;2023-11-21T09:13:04;15.90;99.90
24085;DHT22;12268;52.110;5.548;2023-11-21T09:15:30;16.00;99.90
24085;DHT22;12268;52.110;5.548;2023-11-21T09:17:55;16.20;99.90
24085;DHT22;12268;52.110;5.548;2023-11-21T09:20:21;16.10;99.90
24085;DHT22;12268;52.110;5.548;2023-11-21T09:22:48;16.30;99.90
24085;DHT22;12268;52.110;5.548;2023-11-21T09:25:14;16.40;99.90
24085;DHT22;12268;52.110;5.548;2023-11-21T09:27:40;16.40;99.90
24085;DHT22;12268;52.110;5.548;2023-11-21T09:30:07;16.40;99.90
24085;DHT22;12268;52.110;5.548;2023-11-21T09:32:35;16.60;99.90
24085;DHT22;12268;52.110;5.548;2023-11-21T09:35:03;16.80;99.90
24085;DHT22;12268;52.110;5.548;2023-11-21T09:37:29;16.90;99.90
24085;DHT22;12268;52.110;5.548;2023-11-21T09:39:55;16.90;99.90
24085;DHT22;12268;52.110;5.548;2023-11-21T09:42:29;16.80;99.90
24085;DHT22;12268;52.110;5.548;2023-11-21T09:45:03;16.80;99.90
24085;DHT22;12268;52.110;5.548;2023-11-21T09:47:32;16.90;99.90
24085;DHT22;12268;52.110;5.548;2023-11-21T09:50:01;16.70;99.90
24085;DHT22;12268;52.110;5.548;2023-11-21T09:52:27;16.70;99.90
24085;DHT22;12268;52.110;5.548;2023-11-21T09:54:54;16.60;99.90
24085;DHT22;12268;52.110;5.548;2023-11-21T09:57:23;16.50;99.90
24085;DHT22;12268;52.110;5.548;2023-11-21T09:59:52;16.50;99.90
24085;DHT22;12268;52.110;5.548;2023-11-21T10:02:25;16.40;99.90
24085;DHT22;12268;52.110;5.548;2023-11-21T10:04:52;16.20;99.90
24085;DHT22;12268;52.110;5.548;2023-11-21T10:07:19;16.20;99.90
24085;DHT22;12268;52.110;5.548;2023-11-21T10:09:46;16.10;99.90
24085;DHT22;12268;52.110;5.548;2023-11-21T10:12:14;16.10;99.90
24085;DHT22;12268;52.110;5.548;2023-11-21T10:14:41;16.00;99.90
24085;DHT22;12268;52.110;5.548;2023-11-21T10:17:10;16.10;99.90
24085;DHT22;12268;52.110;5.548;2023-11-21T10:19:39;15.80;99.90
24085;DHT22;12268;52.110;5.548;2023-11-21T10:22:05;15.60;99.90
24085;DHT22;12268;52.110;5.548;2023-11-21T10:24:32;15.50;99.90
24085;DHT22;12268;52.110;5.548;2023-11-21T10:26:58;15.40;99.90
24085;DHT22;12268;52.110;5.548;2023-11-21T10:29:29;15.50;99.90
24085;DHT22;12268;52.110;5.548;2023-11-21T10:31:55;15.80;99.90
24085;DHT22;12268;52.110;5.548;2023-11-21T10:34:24;15.80;99.90
24085;DHT22;12268;52.110;5.548;2023-11-21T10:36:49;15.60;99.90
24085;DHT22;12268;52.110;5.548;2023-11-21T10:39:19;15.80;99.90
24085;DHT22;12268;52.110;5.548;2023-11-21T10:41:46;15.90;99.90
24085;DHT22;12268;52.110;5.548;2023-11-21T10:44:16;15.70;99.90
24085;DHT22;12268;52.110;5.548;2023-11-21T10:46:53;15.40;99.90
24085;DHT22;12268;52.110;5.548;2023-11-21T10:49:24;15.70;99.90
24085;DHT22;12268;52.110;5.548;2023-11-21T10:51:51;15.80;99.90
24085;DHT22;12268;52.110;5.548;2023-11-21T10:54:19;16.00;99.90
24085;DHT22;12268;52.110;5.548;2023-11-21T10:56:47;16.00;99.90
24085;DHT22;12268;52.110;5.548;2023-11-21T10:59:13;15.80;99.90
24085;DHT22;12268;52.110;5.548;2023-11-21T11:01:42;15.80;99.90
24085;DHT22;12268;52.110;5.548;2023-11-21T11:04:09;15.90;99.90
24085;DHT22;12268;52.110;5.548;2023-11-21T11:06:43;15.90;99.90
24085;DHT22;12268;52.110;5.548;2023-11-21T11:09:10;15.80;99.90
24085;DHT22;12268;52.110;5.548;2023-11-21T11:11:41;15.80;99.90
24085;DHT22;12268;52.110;5.548;2023-11-21T11:14:11;15.70;99.90
24085;DHT22;12268;52.110;5.548;2023-11-21T11:16:38;15.80;99.90
24085;DHT22;12268;52.110;5.548;2023-11-21T11:19:07;15.80;99.90
24085;DHT22;12268;52.110;5.548;2023-11-21T11:21:52;15.80;99.90
24085;DHT22;12268;52.110;5.548;2023-11-21T11:24:47;15.80;99.90
24085;DHT22;12268;52.110;5.548;2023-11-21T11:27:52;15.80;99.90
24085;DHT22;12268;52.110;5.548;2023-11-21T11:33:06;15.80;99.90
24085;DHT22;12268;52.110;5.548;2023-11-21T11:38:21;15.80;99.90
24085;DHT22;12268;52.110;5.548;2023-11-21T11:40:52;15.90;99.90
24085;DHT22;12268;52.110;5.548;2023-11-21T11:43:25;15.90;99.90
24085;DHT22;12268;52.110;5.548;2023-11-21T11:45:52;15.90;99.90
24085;DHT22;12268;52.110;5.548;2023-11-21T11:48:21;15.90;99.90
24085;DHT22;12268;52.110;5.548;2023-11-21T11:51:02;16.00;99.90
24085;DHT22;12268;52.110;5.548;2023-11-21T11:53:36;15.90;99.90
24085;DHT22;12268;52.110;5.548;2023-11-21T11:56:30;16.00;99.90
24085;DHT22;12268;52.110;5.548;2023-11-21T11:59:00;15.90;99.90
24085;DHT22;12268;52.110;5.548;2023-11-21T12:01:28;15.90;99.90
24085;DHT22;12268;52.110;5.548;2023-11-21T12:07:00;16.20;99.90
24085;DHT22;12268;52.110;5.548;2023-11-21T12:09:28;16.20;99.90
24085;DHT22;12268;52.110;5.548;2023-11-21T12:11:55;16.20;99.90
24085;DHT22;12268;52.110;5.548;2023-11-21T12:14:24;16.30;99.90
24085;DHT22;12268;52.110;5.548;2023-11-21T12:16:50;16.20;99.90
24085;DHT22;12268;52.110;5.548;2023-11-21T12:19:17;16.10;99.90
24085;DHT22;12268;52.110;5.548;2023-11-21T12:21:43;16.00;99.90
24085;DHT22;12268;52.110;5.548;2023-11-21T12:24:09;16.10;99.90
24085;DHT22;12268;52.110;5.548;2023-11-21T12:26:39;15.90;99.90
24085;DHT22;12268;52.110;5.548;2023-11-21T12:29:04;15.80;99.90
24085;DHT22;12268;52.110;5.548;2023-11-21T12:31:33;15.80;99.90
24085;DHT22;12268;52.110;5.548;2023-11-21T12:33:58;15.90;99.90
24085;DHT22;12268;52.110;5.548;2023-11-21T12:36:24;15.80;99.90
24085;DHT22;12268;52.110;5.548;2023-11-21T12:38:50;15.90;99.90
24085;DHT22;12268;52.110;5.548;2023-11-21T12:41:16;15.70;99.90
24085;DHT22;12268;52.110;5.548;2023-11-21T12:43:46;15.70;99.90
24085;DHT22;12268;52.110;5.548;2023-11-21T12:46:13;15.40;99.90
24085;DHT22;12268;52.110;5.548;2023-11-21T12:48:42;15.10;99.90
24085;DHT22;12268;52.110;5.548;2023-11-21T12:51:10;15.00;99.90
24085;DHT22;12268;52.110;5.548;2023-11-21T12:53:37;14.80;99.90
24085;DHT22;12268;52.110;5.548;2023-11-21T12:56:13;15.10;99.90
24085;DHT22;12268;52.110;5.548;2023-11-21T16:38:44;12.50;99.90
24085;DHT22;12268;52.110;5.548;2023-11-21T16:41:10;12.50;99.90
24085;DHT22;12268;52.110;5.548;2023-11-21T16:43:35;12.50;99.90
24085;DHT22;12268;52.110;5.548;2023-11-21T16:46:01;12.50;99.90
24085;DHT22;12268;52.110;5.548;2023-11-21T16:48:26;12.40;99.90
24085;DHT22;12268;52.110;5.548;2023-11-21T16:50:53;12.20;99.90
24085;DHT22;12268;52.110;5.548;2023-11-21T16:53:18;12.20;99.90
24085;DHT22;12268;52.110;5.548;2023-11-21T16:55:44;12.20;99.90
24085;DHT22;12268;52.110;5.548;2023-11-21T17:57:41;11.30;99.90
24085;DHT22;12268;52.110;5.548;2023-11-21T18:00:07;11.30;99.90
24085;DHT22;12268;52.110;5.548;2023-11-21T18:02:37;11.30;99.90
24085;DHT22;12268;52.110;5.548;2023-11-21T18:05:05;11.30;99.90
24085;DHT22;12268;52.110;5.548;2023-11-21T18:07:37;11.30;99.90
24085;DHT22;12268;52.110;5.548;2023-11-21T18:10:03;11.30;99.90
24085;DHT22;12268;52.110;5.548;2023-11-21T18:12:31;11.20;99.90
24085;DHT22;12268;52.110;5.548;2023-11-21T18:14:57;11.20;99.90
24085;DHT22;12268;52.110;5.548;2023-11-21T18:17:22;11.20;99.90
24085;DHT22;12268;52.110;5.548;2023-11-21T18:22:23;11.20;99.90
24085;DHT22;12268;52.110;5.548;2023-11-21T18:24:51;11.10;99.90
24085;DHT22;12268;52.110;5.548;2023-11-21T18:27:20;11.00;99.90
24085;DHT22;12268;52.110;5.548;2023-11-21T18:29:58;11.00;99.90
24085;DHT22;12268;52.110;5.548;2023-11-21T18:32:25;10.90;99.90
24085;DHT22;12268;52.110;5.548;2023-11-21T18:34:51;10.90;99.90
24085;DHT22;12268;52.110;5.548;2023-11-21T18:37:17;10.90;99.90
24085;DHT22;12268;52.110;5.548;2023-11-21T18:39:44;10.90;99.90
24085;DHT22;12268;52.110;5.548;2023-11-21T18:42:10;10.80;99.90
24085;DHT22;12268;52.110;5.548;2023-11-21T18:44:35;10.80;99.90
24085;DHT22;12268;52.110;5.548;2023-11-21T18:47:02;10.70;99.90
24085;DHT22;12268;52.110;5.548;2023-11-21T18:49:27;10.70;99.90
24085;DHT22;12268;52.110;5.548;2023-11-21T18:51:54;10.70;99.90
24085;DHT22;12268;52.110;5.548;2023-11-21T18:54:21;10.80;99.90
24085;DHT22;12268;52.110;5.548;2023-11-21T18:56:47;10.70;99.90
24085;DHT22;12268;52.110;5.548;2023-11-21T18:59:13;10.70;99.90
24085;DHT22;12268;52.110;5.548;2023-11-21T19:01:39;10.70;99.90
24085;DHT22;12268;52.110;5.548;2023-11-21T19:04:05;10.70;99.90
24085;DHT22;12268;52.110;5.548;2023-11-21T19:06:31;10.70;99.90
24085;DHT22;12268;52.110;5.548;2023-11-21T19:08:58;10.70;99.90
24085;DHT22;12268;52.110;5.548;2023-11-21T19:11:23;10.70;99.90
24085;DHT22;12268;52.110;5.548;2023-11-21T19:13:49;10.60;99.90
24085;DHT22;12268;52.110;5.548;2023-11-21T19:16:15;10.60;99.90
24085;DHT22;12268;52.110;5.548;2023-11-21T19:18:42;10.50;99.90
24085;DHT22;12268;52.110;5.548;2023-11-21T19:21:17;10.40;99.90
24085;DHT22;12268;52.110;5.548;2023-11-21T19:23:48;10.40;99.90
24085;DHT22;12268;52.110;5.548;2023-11-21T19:26:17;10.40;99.90
24085;DHT22;12268;52.110;5.548;2023-11-21T19:28:43;10.30;99.90
24085;DHT22;12268;52.110;5.548;2023-11-21T19:31:19;10.30;99.90
24085;DHT22;12268;52.110;5.548;2023-11-21T19:33:48;10.30;99.90
24085;DHT22;12268;52.110;5.548;2023-11-21T19:36:17;10.30;99.90
24085;DHT22;12268;52.110;5.548;2023-11-21T19:38:44;10.20;99.90
24085;DHT22;12268;52.110;5.548;2023-11-21T19:41:17;10.20;99.90
24085;DHT22;12268;52.110;5.548;2023-11-21T19:43:44;10.20;99.90
24085;DHT22;12268;52.110;5.548;2023-11-21T19:46:11;10.20;99.90
24085;DHT22;12268;52.110;5.548;2023-11-21T19:48:36;10.10;99.90
24085;DHT22;12268;52.110;5.548;2023-11-21T19:51:03;10.00;99.90
24085;DHT22;12268;52.110;5.548;2023-11-21T19:53:31;10.10;99.90
24085;DHT22;12268;52.110;5.548;2023-11-21T19:55:58;10.10;99.90
24085;DHT22;12268;52.110;5.548;2023-11-21T19:58:24;10.00;99.90
24085;DHT22;12268;52.110;5.548;2023-11-21T20:00:50;10.00;99.90
24085;DHT22;12268;52.110;5.548;2023-11-21T20:03:15;10.00;99.90
24085;DHT22;12268;52.110;5.548;2023-11-21T20:05:44;9.90;99.90
24085;DHT22;12268;52.110;5.548;2023-11-21T20:08:10;9.80;99.90
24085;DHT22;12268;52.110;5.548;2023-11-21T20:10:36;9.90;99.90
24085;DHT22;12268;52.110;5.548;2023-11-21T20:13:04;9.90;99.90
24085;DHT22;12268;52.110;5.548;2023-11-21T20:15:30;9.80;99.90
24085;DHT22;12268;52.110;5.548;2023-11-21T20:17:56;9.80;99.90
24085;DHT22;12268;52.110;5.548;2023-11-21T20:20:21;9.90;99.90
24085;DHT22;12268;52.110;5.548;2023-11-21T20:22:47;9.80;99.90
24085;DHT22;12268;52.110;5.548;2023-11-21T20:25:13;9.80;99.90
24085;DHT22;12268;52.110;5.548;2023-11-21T20:27:40;9.70;99.90
24085;DHT22;12268;52.110;5.548;2023-11-21T20:30:06;9.80;99.90
24085;DHT22;12268;52.110;5.548;2023-11-21T20:32:34;9.90;99.90